Time;durP1;ratioP1;P1;durP2;ratioP2;P2;SDS_P1;SDS_P2;PMS_P1;PMS_P2;Temp;Humidity;BMP_temperature;BMP_pressure;BME280_temperature;BME280_humidity;BME280_pressure;Samples;Min_cycle;Max_cycle;Signal;HPM_P1;HPM_P2
2021/06/01 00:01:50;;;;;;;11.82;1.95;;;39.40;14.00;;;;;;5075508;28;20119;-63
2021/06/01 00:04:17;;;;;;;11.23;1.50;;;39.20;13.60;;;;;;5072149;28;20107;-63
2021/06/01 00:06:44;;;;;;;14.98;1.65;;;39.10;14.00;;;;;;5068794;28;20077;-64
2021/06/01 00:09:17;;;;;;;9.25;1.90;;;39.10;14.00;;;;;;5073306;28;20581;-64
2021/06/01 00:11:44;;;;;;;12.00;1.83;;;38.80;14.30;;;;;;5072438;28;20155;-64
2021/06/01 00:14:12;;;;;;;17.92;2.08;;;38.60;14.10;;;;;;5062711;28;20069;-63
2021/06/01 00:16:39;;;;;;;14.68;1.73;;;38.60;14.20;;;;;;5068240;28;20085;-64
2021/06/01 00:19:08;;;;;;;17.60;2.05;;;38.60;14.20;;;;;;5064642;28;20592;-65
2021/06/01 00:21:38;;;;;;;49.72;3.03;;;38.60;14.10;;;;;;5074897;28;20080;-64
2021/06/01 00:24:07;;;;;;;18.95;2.03;;;38.60;14.50;;;;;;5073844;28;20081;-64
2021/06/01 00:26:34;;;;;;;8.15;1.35;;;38.50;14.40;;;;;;5070201;28;20104;-63
2021/06/01 00:29:01;;;;;;;10.20;1.73;;;38.50;14.20;;;;;;5071385;28;20082;-64
2021/06/01 00:31:27;;;;;;;12.88;1.20;;;38.40;14.10;;;;;;5068963;28;20092;-62
2021/06/01 00:33:54;;;;;;;11.23;1.50;;;38.40;14.20;;;;;;5071304;28;20089;-64
2021/06/01 00:36:20;;;;;;;18.25;1.95;;;38.30;13.90;;;;;;5069182;28;20701;-64
2021/06/01 00:38:47;;;;;;;5.80;1.30;;;38.30;13.90;;;;;;5068871;28;20496;-65
2021/06/01 00:41:14;;;;;;;7.65;1.30;;;38.40;13.80;;;;;;5070437;28;20101;-64
2021/06/01 00:43:41;;;;;;;8.60;1.27;;;38.10;13.90;;;;;;5069454;28;20462;-64
2021/06/01 00:46:07;;;;;;;10.70;1.30;;;38.20;13.90;;;;;;5074445;28;20549;-65
2021/06/01 00:48:34;;;;;;;9.38;1.40;;;38.10;13.80;;;;;;5068055;28;20077;-65
2021/06/01 00:51:01;;;;;;;8.30;1.55;;;38.00;13.90;;;;;;5074975;28;20068;-66
2021/06/01 00:53:28;;;;;;;9.50;1.88;;;38.00;21.60;;;;;;5071708;28;20139;-65
2021/06/01 00:55:55;;;;;;;15.27;1.48;;;37.90;13.40;;;;;;5065685;28;20081;-64
2021/06/01 00:58:21;;;;;;;13.98;1.80;;;37.90;23.80;;;;;;5073172;28;20077;-65
2021/06/01 01:03:34;;;;;;;15.35;1.80;;;37.70;20.10;;;;;;5072051;28;20070;-65
2021/06/01 01:06:32;;;;;;;9.27;1.40;;;37.60;14.10;;;;;;5070777;28;20385;-65
2021/06/01 01:09:08;;;;;;;12.55;1.50;;;37.50;15.20;;;;;;5072008;28;20041;-63
2021/06/01 01:11:41;;;;;;;;;;;37.40;27.80;;;;;;5073459;28;20017;-64
2021/06/01 01:14:14;;;;;;;6.10;1.42;;;36.40;28.00;;;;;;5074211;28;20269;-65
2021/06/01 01:17:01;;;;;;;13.05;1.40;;;37.10;21.80;;;;;;5071266;28;20111;-66
2021/06/01 01:20:24;;;;;;;14.95;1.88;;;36.80;24.90;;;;;;5070716;28;20111;-64
2021/06/01 01:22:54;;;;;;;11.13;1.25;;;36.80;13.30;;;;;;5028045;28;20141;-65
2021/06/01 01:25:24;;;;;;;10.82;1.88;;;36.70;18.40;;;;;;5029720;28;20436;-64
2021/06/01 01:28:05;;;;;;;22.33;1.85;;;36.70;14.10;;;;;;5044686;28;20089;-66
2021/06/01 01:30:50;;;;;;;10.20;1.90;;;36.70;14.20;;;;;;5072811;28;20084;-64
2021/06/01 01:33:32;;;;;;;13.95;2.20;;;36.50;14.00;;;;;;5070353;28;20078;-64
2021/06/01 01:36:04;;;;;;;23.70;2.63;;;36.40;14.40;;;;;;5068580;28;20081;-64
2021/06/01 01:38:34;;;;;;;14.93;1.55;;;36.30;14.80;;;;;;5077271;28;20118;-65
2021/06/01 01:41:10;;;;;;;12.40;1.75;;;36.20;14.70;;;;;;5077190;28;20093;-64
2021/06/01 01:43:42;;;;;;;11.82;1.83;;;36.10;15.00;;;;;;5074052;28;20185;-65
2021/06/01 01:46:24;;;;;;;16.55;2.10;;;36.10;15.40;;;;;;5069279;28;20085;-65
2021/06/01 01:48:59;;;;;;;22.77;2.10;;;36.00;15.70;;;;;;5086358;28;20072;-64
2021/06/01 01:51:32;;;;;;;22.05;2.63;;;35.90;15.80;;;;;;5077807;28;20517;-64
2021/06/01 01:54:02;;;;;;;17.80;2.05;;;35.70;16.10;;;;;;5074157;28;20748;-65
2021/06/01 01:56:34;;;;;;;15.10;2.28;;;35.40;16.30;;;;;;5070991;28;20091;-64
2021/06/01 01:59:03;;;;;;;22.95;2.40;;;35.30;16.60;;;;;;5075507;28;20540;-65
2021/06/01 02:01:35;;;;;;;27.80;2.75;;;35.10;16.70;;;;;;5076010;28;20069;-65
2021/06/01 02:04:04;;;;;;;25.85;2.10;;;35.00;17.00;;;;;;5069593;28;20130;-65
2021/06/01 02:06:31;;;;;;;29.48;2.65;;;34.90;17.30;;;;;;5076407;28;20069;-64
2021/06/01 02:08:58;;;;;;;27.63;2.58;;;34.80;17.70;;;;;;5073839;28;20076;-64
2021/06/01 02:11:25;;;;;;;37.20;3.17;;;34.70;17.90;;;;;;5077611;28;20121;-62
2021/06/01 02:14:04;;;;;;;37.75;3.22;;;34.50;18.00;;;;;;5076438;28;20077;-64
2021/06/01 02:16:33;;;;;;;24.35;2.60;;;34.40;18.30;;;;;;5070421;28;20069;-63
2021/06/01 02:18:59;;;;;;;42.80;3.58;;;34.30;18.40;;;;;;5065637;28;20165;-65
2021/06/01 02:21:37;;;;;;;32.00;2.70;;;34.20;18.50;;;;;;5070133;28;20080;-64
2021/06/01 02:24:09;;;;;;;23.00;1.75;;;34.10;18.30;;;;;;5064834;28;20077;-64
2021/06/01 02:26:51;;;;;;;20.38;2.45;;;34.00;18.30;;;;;;5067588;28;20069;-64
2021/06/01 02:29:28;;;;;;;31.63;3.05;;;33.80;18.10;;;;;;5065889;28;20119;-64
2021/06/01 02:31:55;;;;;;;23.85;2.47;;;33.70;18.10;;;;;;5067590;28;20159;-64
2021/06/01 02:34:23;;;;;;;28.30;2.17;;;33.60;18.30;;;;;;5067165;28;20092;-63
2021/06/01 02:36:52;;;;;;;22.90;2.33;;;33.50;18.30;;;;;;5066481;28;20166;-64
2021/06/01 02:39:21;;;;;;;16.67;2.00;;;33.50;18.40;;;;;;5064007;28;20188;-64
2021/06/01 02:41:50;;;;;;;24.63;1.92;;;33.40;18.60;;;;;;5071044;28;20142;-64
2021/06/01 02:44:17;;;;;;;29.50;2.47;;;33.30;18.80;;;;;;5072611;28;20077;-63
2021/06/01 02:46:46;;;;;;;22.80;3.22;;;33.20;19.00;;;;;;5072345;28;20068;-64
2021/06/01 02:49:15;;;;;;;27.50;2.70;;;33.20;19.70;;;;;;5071678;28;20219;-64
2021/06/01 02:51:42;;;;;;;32.90;2.55;;;33.10;19.30;;;;;;5062825;28;20077;-63
2021/06/01 02:54:09;;;;;;;27.95;3.50;;;33.00;19.30;;;;;;5063598;28;20111;-65
2021/06/01 02:56:38;;;;;;;29.58;4.30;;;33.00;19.20;;;;;;5064586;28;20170;-65
2021/06/01 02:59:08;;;;;;;31.67;4.45;;;32.90;18.90;;;;;;5065152;28;20442;-63
2021/06/01 03:01:35;;;;;;;27.13;5.43;;;32.90;18.90;;;;;;5063346;28;20546;-63
2021/06/01 03:04:01;;;;;;;30.88;5.85;;;32.70;18.80;;;;;;5065531;28;20671;-66
2021/06/01 03:06:29;;;;;;;39.15;7.00;;;32.70;18.70;;;;;;5094646;28;20078;-65
2021/06/01 03:08:56;;;;;;;27.15;6.47;;;32.60;18.30;;;;;;5068083;28;20445;-65
2021/06/01 03:11:23;;;;;;;30.52;6.20;;;32.50;18.20;;;;;;5065235;28;20089;-67
2021/06/01 03:13:52;;;;;;;24.63;6.13;;;32.50;18.20;;;;;;5068228;28;20437;-65
2021/06/01 03:16:21;;;;;;;28.27;4.70;;;32.30;18.00;;;;;;5064983;28;20112;-63
2021/06/01 03:18:48;;;;;;;31.05;4.60;;;32.30;17.90;;;;;;5062666;28;20474;-64
2021/06/01 03:21:15;;;;;;;28.45;4.15;;;32.30;17.90;;;;;;5067365;28;20097;-63
2021/06/01 03:23:43;;;;;;;20.27;3.88;;;32.20;17.70;;;;;;5072411;28;20077;-63
2021/06/01 03:26:09;;;;;;;20.02;3.45;;;32.10;17.70;;;;;;5085381;28;20181;-64
2021/06/01 03:28:36;;;;;;;15.55;3.30;;;32.10;17.80;;;;;;5065838;28;20070;-63
2021/06/01 03:31:03;;;;;;;21.33;3.35;;;32.00;17.80;;;;;;5060555;28;20113;-63
2021/06/01 03:33:30;;;;;;;16.70;4.13;;;31.90;18.00;;;;;;5065013;28;20081;-63
2021/06/01 03:35:57;;;;;;;12.40;2.55;;;31.80;18.20;;;;;;5069645;28;20132;-64
2021/06/01 03:38:24;;;;;;;8.63;2.13;;;31.80;18.30;;;;;;5064774;28;20085;-65
2021/06/01 03:40:51;;;;;;;9.88;2.03;;;31.70;18.50;;;;;;5064788;28;20553;-64
2021/06/01 03:43:18;;;;;;;13.18;1.70;;;31.70;18.70;;;;;;5066516;28;21539;-63
2021/06/01 03:45:44;;;;;;;15.02;2.15;;;31.70;18.50;;;;;;5066481;28;20108;-64
2021/06/01 03:48:11;;;;;;;13.43;1.90;;;31.70;18.60;;;;;;5061690;28;20558;-64
2021/06/01 03:50:37;;;;;;;13.57;2.20;;;31.60;18.70;;;;;;5068180;28;20077;-63
2021/06/01 03:53:05;;;;;;;19.40;2.53;;;31.60;18.60;;;;;;5068570;28;20105;-64
2021/06/01 03:55:32;;;;;;;13.43;2.80;;;31.60;18.70;;;;;;5067798;28;20081;-63
2021/06/01 03:57:58;;;;;;;13.75;3.20;;;31.50;18.70;;;;;;5072744;28;20077;-63
2021/06/01 04:00:29;;;;;;;16.98;2.90;;;31.40;19.00;;;;;;5062105;28;20163;-64
2021/06/01 04:02:56;;;;;;;17.88;2.45;;;31.40;19.40;;;;;;5066784;28;20438;-64
2021/06/01 04:05:23;;;;;;;20.33;3.33;;;31.30;19.60;;;;;;5067454;28;20080;-64
2021/06/01 04:07:50;;;;;;;10.10;2.42;;;31.20;19.70;;;;;;5071115;28;20081;-64
2021/06/01 04:10:17;;;;;;;14.75;2.60;;;31.20;20.00;;;;;;5060579;28;20437;-63
2021/06/01 04:12:44;;;;;;;18.45;2.42;;;31.10;20.30;;;;;;5068565;28;20164;-64
2021/06/01 04:15:11;;;;;;;18.10;3.50;;;31.10;20.50;;;;;;5068052;28;20439;-64
2021/06/01 04:17:38;;;;;;;15.65;4.45;;;31.10;20.40;;;;;;5068638;28;20080;-65
2021/06/01 04:20:08;;;;;;;23.35;5.00;;;31.00;20.10;;;;;;5066705;28;20127;-64
2021/06/01 04:22:34;;;;;;;21.45;5.72;;;31.00;19.80;;;;;;5064551;28;20437;-63
2021/06/01 04:25:01;;;;;;;18.23;5.00;;;30.90;19.70;;;;;;5071218;28;20092;-63
2021/06/01 04:27:28;;;;;;;27.23;5.30;;;30.90;19.80;;;;;;5066353;28;20410;-64
2021/06/01 04:29:54;;;;;;;30.52;5.43;;;30.90;19.70;;;;;;5066379;28;20081;-64
2021/06/01 04:32:21;;;;;;;23.13;4.57;;;30.80;19.60;;;;;;5064959;28;20078;-64
2021/06/01 04:34:47;;;;;;;40.38;4.93;;;30.90;19.60;;;;;;5069956;28;20077;-64
2021/06/01 04:37:14;;;;;;;30.65;5.55;;;30.80;19.40;;;;;;5066863;28;20664;-64
2021/06/01 04:39:41;;;;;;;38.90;5.18;;;30.70;19.50;;;;;;5070877;28;20172;-63
2021/06/01 04:42:07;;;;;;;41.17;5.50;;;30.70;19.50;;;;;;5065332;28;20077;-62
2021/06/01 04:44:34;;;;;;;37.55;5.05;;;30.60;19.20;;;;;;5065368;28;20087;-64
2021/06/01 04:47:01;;;;;;;29.27;4.05;;;30.60;19.00;;;;;;5067658;28;20126;-63
2021/06/01 04:49:27;;;;;;;34.53;4.03;;;30.60;18.80;;;;;;5068168;28;20081;-63
2021/06/01 04:51:54;;;;;;;38.05;3.97;;;30.50;18.50;;;;;;5067624;28;20107;-62
2021/06/01 04:54:20;;;;;;;28.58;3.42;;;30.60;18.60;;;;;;5063816;28;20081;-63
2021/06/01 04:56:47;;;;;;;29.10;3.22;;;30.50;18.60;;;;;;5067208;28;20077;-62
2021/06/01 04:59:13;;;;;;;34.88;4.50;;;30.50;18.70;;;;;;5062022;28;20101;-62
2021/06/01 05:01:40;;;;;;;25.33;2.72;;;30.50;18.70;;;;;;5064215;28;20168;-62
2021/06/01 05:04:06;;;;;;;31.83;3.55;;;30.40;19.00;;;;;;5070959;28;20430;-62
2021/06/01 05:06:34;;;;;;;25.48;3.25;;;30.40;19.50;;;;;;5065440;28;20450;-63
2021/06/01 05:09:03;;;;;;;16.98;3.08;;;30.30;19.10;;;;;;5069109;28;20084;-62
2021/06/01 05:11:30;;;;;;;17.45;2.85;;;30.20;19.20;;;;;;5064875;28;20108;-63
2021/06/01 05:13:57;;;;;;;20.38;3.17;;;30.10;19.30;;;;;;5062943;28;20474;-62
2021/06/01 05:16:23;;;;;;;18.17;2.10;;;30.00;19.60;;;;;;5064536;28;20522;-62
2021/06/01 05:18:50;;;;;;;17.90;2.72;;;30.00;19.70;;;;;;5063237;28;20193;-61
2021/06/01 05:21:17;;;;;;;15.25;2.42;;;30.00;19.90;;;;;;5067842;28;20504;-62
2021/06/01 05:23:43;;;;;;;11.13;1.98;;;29.90;21.80;;;;;;5063426;28;20124;-62
2021/06/01 05:26:11;;;;;;;13.40;2.20;;;29.90;19.40;;;;;;5070695;28;20081;-62
2021/06/01 05:28:37;;;;;;;15.48;2.13;;;29.90;19.20;;;;;;5063029;28;20073;-62
2021/06/01 05:33:34;;;;;;;10.75;2.00;;;29.80;18.80;;;;;;5066992;28;20484;-62
2021/06/01 05:36:01;;;;;;;19.10;2.40;;;28.90;30.00;;;;;;5068369;28;20068;-63
2021/06/01 05:38:32;;;;;;;7.35;1.90;;;29.90;18.40;;;;;;5069341;28;20461;-62
2021/06/01 05:40:59;;;;;;;13.98;1.95;;;29.90;18.30;;;;;;5064900;28;20565;-63
2021/06/01 05:43:29;;;;;;;36.67;4.10;;;29.80;18.20;;;;;;5065608;28;20151;-63
2021/06/01 05:45:55;;;;;;;11.38;2.33;;;29.90;18.20;;;;;;5058648;28;20084;-63
2021/06/01 05:48:22;;;;;;;10.98;2.80;;;29.90;18.10;;;;;;5064762;28;20085;-63
2021/06/01 05:50:49;;;;;;;14.57;2.38;;;29.90;18.10;;;;;;5062091;28;20073;-61
2021/06/01 05:53:17;;;;;;;14.55;2.53;;;29.80;17.90;;;;;;5066188;28;20522;-63
2021/06/01 05:55:45;;;;;;;16.95;2.75;;;29.80;17.90;;;;;;5064066;28;20185;-61
2021/06/01 05:58:12;;;;;;;17.73;2.67;;;29.80;17.70;;;;;;5065875;28;20081;-61
2021/06/01 06:00:39;;;;;;;29.08;3.35;;;29.80;18.00;;;;;;5072669;28;20097;-61
2021/06/01 06:03:05;;;;;;;21.80;3.92;;;29.80;18.20;;;;;;5074943;28;20069;-61
2021/06/01 06:05:32;;;;;;;25.13;3.05;;;29.80;18.40;;;;;;5071937;28;20080;-61
2021/06/01 06:08:17;;;;;;;15.50;3.00;;;29.80;18.70;;;;;;5069933;28;20400;-59
2021/06/01 06:10:45;;;;;;;30.48;3.70;;;29.70;19.00;;;;;;5070929;28;20090;-61
2021/06/01 06:13:13;;;;;;;22.75;4.15;;;29.70;19.30;;;;;;5074611;28;20325;-59
2021/06/01 06:15:40;;;;;;;21.92;3.80;;;29.90;19.50;;;;;;5068331;28;20433;-57
2021/06/01 06:18:13;;;;;;;19.15;4.40;;;30.10;19.50;;;;;;5067392;28;20082;-58
2021/06/01 06:20:40;;;;;;;33.20;4.57;;;30.20;19.10;;;;;;5073294;28;20115;-56
2021/06/01 06:23:07;;;;;;;27.85;5.18;;;30.30;19.20;;;;;;5069911;28;20069;-56
2021/06/01 06:25:33;;;;;;;35.03;5.75;;;30.30;19.10;;;;;;5070029;28;20077;-56
2021/06/01 06:28:00;;;;;;;21.75;4.78;;;30.20;19.20;;;;;;5066806;28;20533;-59
2021/06/01 06:30:26;;;;;;;34.63;6.30;;;30.10;19.40;;;;;;5069856;28;20084;-59
2021/06/01 06:32:53;;;;;;;31.58;5.75;;;30.10;19.60;;;;;;5068356;28;20077;-59
2021/06/01 06:35:20;;;;;;;105.00;8.65;;;30.20;19.90;;;;;;5068088;28;20105;-60
2021/06/01 06:37:47;;;;;;;32.15;5.15;;;30.20;20.60;;;;;;5073641;28;20084;-61
2021/06/01 06:40:14;;;;;;;37.80;4.80;;;30.10;19.80;;;;;;5074296;28;20100;-60
2021/06/01 06:42:42;;;;;;;30.10;5.30;;;30.00;24.40;;;;;;5070471;28;20080;-59
2021/06/01 06:45:13;;;;;;;24.77;5.30;;;30.00;20.30;;;;;;5073662;28;20112;-60
2021/06/01 06:50:18;;;;;;;34.55;5.53;;;29.80;20.80;;;;;;5066957;28;20125;-58
2021/06/01 06:52:45;;;;;;;30.98;5.63;;;29.70;21.10;;;;;;5071211;28;20077;-60
2021/06/01 06:55:12;;;;;;;27.85;4.97;;;29.60;21.20;;;;;;5065326;28;20153;-58
2021/06/01 06:57:40;;;;;;;23.73;5.40;;;29.50;21.40;;;;;;5069998;28;20042;-59
2021/06/01 07:00:18;;;;;;;23.67;4.43;;;29.40;21.70;;;;;;5069678;28;20100;-58
2021/06/01 07:02:45;;;;;;;30.17;5.03;;;29.20;21.80;;;;;;5071038;28;20076;-59
2021/06/01 07:05:14;;;;;;;27.08;4.93;;;29.10;45.60;;;;;;5063224;28;20112;-56
2021/06/01 07:07:41;;;;;;;23.38;5.03;;;28.90;21.60;;;;;;5067328;28;20426;-57
2021/06/01 07:10:12;;;;;;;32.28;5.38;;;28.90;22.20;;;;;;5068771;28;20529;-58
2021/06/01 07:12:43;;;;;;;26.33;5.50;;;28.90;21.90;;;;;;5069662;28;20079;-59
2021/06/01 07:15:12;;;;;;;23.85;6.28;;;28.70;22.20;;;;;;5063697;28;20115;-54
2021/06/01 07:17:43;;;;;;;36.30;6.38;;;28.70;22.50;;;;;;5073684;28;20510;-58
2021/06/01 07:20:11;;;;;;;26.08;5.80;;;28.70;23.00;;;;;;5074240;28;20141;-60
2021/06/01 07:22:38;;;;;;;27.25;6.95;;;28.80;23.50;;;;;;5091836;28;20518;-57
2021/06/01 07:25:05;;;;;;;31.25;7.60;;;28.80;24.20;;;;;;5072466;28;20081;-60
2021/06/01 07:27:32;;;;;;;30.17;7.47;;;28.70;24.70;;;;;;5076891;28;20214;-58
2021/06/01 07:29:59;;;;;;;27.52;8.00;;;28.60;25.40;;;;;;5072810;28;20073;-59
2021/06/01 07:32:26;;;;;;;28.85;8.25;;;28.60;26.00;;;;;;5071107;28;20074;-60
2021/06/01 07:34:52;;;;;;;30.05;9.10;;;28.60;26.40;;;;;;5074379;28;20091;-59
2021/06/01 07:37:19;;;;;;;28.98;7.97;;;28.60;26.80;;;;;;5102230;27;20084;-57
2021/06/01 07:39:45;;;;;;;39.83;7.65;;;28.60;27.20;;;;;;5073389;28;20109;-60
2021/06/01 07:42:12;;;;;;;24.58;6.85;;;28.50;27.50;;;;;;5075710;28;20080;-59
2021/06/01 07:44:39;;;;;;;28.33;6.68;;;28.50;27.70;;;;;;5076906;28;20080;-59
2021/06/01 07:47:05;;;;;;;19.77;6.28;;;28.40;27.80;;;;;;5069227;28;20167;-60
2021/06/01 07:49:32;;;;;;;17.15;5.82;;;28.30;28.10;;;;;;5102469;28;20510;-60
2021/06/01 07:51:59;;;;;;;21.40;5.47;;;28.30;28.40;;;;;;5074458;28;20072;-59
2021/06/01 07:54:25;;;;;;;18.92;5.75;;;28.20;28.70;;;;;;5067526;28;20164;-57
2021/06/01 07:56:52;;;;;;;20.45;5.15;;;28.20;28.90;;;;;;5070812;28;20069;-59
2021/06/01 07:59:18;;;;;;;20.52;4.90;;;28.10;28.90;;;;;;5078093;28;20088;-59
2021/06/01 08:01:47;;;;;;;20.65;5.22;;;28.00;29.00;;;;;;5070169;28;20101;-59
2021/06/01 08:04:13;;;;;;;21.08;5.03;;;27.90;29.20;;;;;;5074561;28;20080;-59
2021/06/01 08:06:40;;;;;;;12.23;4.50;;;27.80;29.20;;;;;;5074978;28;20496;-59
2021/06/01 08:09:07;;;;;;;21.30;5.55;;;27.70;29.30;;;;;;5069947;28;20128;-59
2021/06/01 08:11:36;;;;;;;18.58;5.07;;;27.60;29.40;;;;;;5073383;28;20111;-59
2021/06/01 08:14:03;;;;;;;19.33;4.47;;;27.50;29.60;;;;;;5074802;28;20120;-56
2021/06/01 08:16:31;;;;;;;22.40;6.55;;;27.50;29.60;;;;;;5073243;28;20597;-60
2021/06/01 08:21:52;;;;;;;19.52;5.63;;;27.30;29.90;;;;;;5077615;28;20080;-55
2021/06/01 08:24:19;;;;;;;23.23;4.90;;;27.10;30.00;;;;;;5072801;28;20073;-59
2021/06/01 08:26:45;;;;;;;17.95;4.00;;;27.00;30.00;;;;;;5074610;28;20403;-59
2021/06/01 08:29:13;;;;;;;19.20;4.95;;;27.00;30.20;;;;;;5072633;28;20152;-59
2021/06/01 08:31:41;;;;;;;19.25;5.32;;;27.00;30.50;;;;;;5072174;28;20471;-58
2021/06/01 08:34:08;;;;;;;29.40;5.35;;;27.00;30.60;;;;;;5072157;28;20080;-58
2021/06/01 08:36:36;;;;;;;18.30;5.55;;;27.00;30.70;;;;;;5072917;28;20081;-59
2021/06/01 08:39:07;;;;;;;17.45;5.05;;;26.80;31.00;;;;;;5073239;28;20095;-60
2021/06/01 08:41:34;;;;;;;17.65;5.03;;;26.80;31.60;;;;;;5073292;28;20093;-60
2021/06/01 08:44:03;;;;;;;13.52;4.00;;;26.70;32.40;;;;;;5072695;28;20142;-59
2021/06/01 08:46:31;;;;;;;15.73;3.60;;;26.50;33.50;;;;;;5073623;28;20124;-59
2021/06/01 08:48:58;;;;;;;16.05;3.30;;;26.60;34.10;;;;;;5071327;28;20087;-59
2021/06/01 08:51:26;;;;;;;14.07;4.13;;;26.50;34.60;;;;;;5077411;28;20441;-59
2021/06/01 08:53:56;;;;;;;20.95;4.82;;;26.40;35.00;;;;;;5077484;28;20702;-58
2021/06/01 08:56:23;;;;;;;19.52;4.85;;;26.40;35.10;;;;;;5073755;28;20084;-58
2021/06/01 08:58:50;;;;;;;21.95;5.00;;;26.40;35.30;;;;;;5078354;28;20148;-58
2021/06/01 09:01:18;;;;;;;21.63;4.72;;;26.30;35.30;;;;;;5073923;28;20093;-56
2021/06/01 09:03:50;;;;;;;13.68;4.85;;;26.30;35.20;;;;;;5077324;28;20073;-59
2021/06/01 09:14:46;;;;;;;23.73;6.53;;;26.30;35.70;;;;;;5076782;28;20122;-59
2021/06/01 09:22:57;;;;;;;21.13;6.28;;;26.20;38.10;;;;;;5074265;28;20543;-56
2021/06/01 09:26:00;;;;;;;23.77;7.57;;;26.10;38.60;;;;;;5072709;28;20705;-58
2021/06/01 09:28:18;;;;;;;24.55;8.30;;;26.00;38.90;;;;;;5070703;28;20126;-57
2021/06/01 09:30:54;;;;;;;24.52;7.50;;;25.80;39.40;;;;;;5075530;28;20101;-57
2021/06/01 09:33:25;;;;;;;21.20;7.88;;;25.80;39.80;;;;;;5073779;28;20076;-58
2021/06/01 09:36:02;;;;;;;19.95;6.00;;;25.80;40.40;;;;;;5075781;28;20130;-56
2021/06/01 09:38:49;;;;;;;19.42;5.93;;;25.60;41.50;;;;;;5075132;28;20104;-59
2021/06/01 09:41:24;;;;;;;20.58;6.15;;;25.60;41.60;;;;;;5072983;28;20108;-58
2021/06/01 09:43:52;;;;;;;20.45;5.05;;;25.60;41.70;;;;;;5075507;28;20154;-57
2021/06/01 09:46:20;;;;;;;18.80;5.30;;;25.40;42.00;;;;;;5071947;28;20101;-54
2021/06/01 09:48:48;;;;;;;18.60;5.32;;;25.50;42.30;;;;;;5075834;28;20536;-56
2021/06/01 09:51:32;;;;;;;20.70;4.20;;;25.50;42.20;;;;;;5072779;28;20130;-59
2021/06/01 09:54:36;;;;;;;19.77;4.20;;;25.50;42.60;;;;;;5074845;28;20072;-57
2021/06/01 09:57:21;;;;;;;12.73;3.65;;;25.40;44.30;;;;;;5087518;28;20084;-57
2021/06/01 10:00:09;;;;;;;13.57;4.05;;;25.20;44.60;;;;;;5075680;28;20085;-57
2021/06/01 10:02:36;;;;;;;11.07;3.45;;;25.20;44.90;;;;;;5071102;28;20536;-56
2021/06/01 10:05:15;;;;;;;16.88;3.38;;;25.20;45.00;;;;;;5077714;28;20085;-57
2021/06/01 10:07:42;;;;;;;14.65;3.40;;;25.00;45.60;;;;;;5072976;28;20437;-58
2021/06/01 10:10:14;;;;;;;13.18;3.90;;;25.10;45.60;;;;;;5076293;28;20084;-58
2021/06/01 10:12:41;;;;;;;19.75;6.00;;;25.00;46.00;;;;;;5072728;28;20107;-58
2021/06/01 10:15:08;;;;;;;14.63;5.45;;;25.00;46.50;;;;;;5076607;28;20073;-57
2021/06/01 10:17:34;;;;;;;13.40;3.90;;;24.90;47.00;;;;;;5070948;28;20079;-58
2021/06/01 10:20:01;;;;;;;10.88;3.33;;;24.90;47.70;;;;;;5076553;28;20112;-57
2021/06/01 10:22:28;;;;;;;16.75;8.70;;;24.90;48.10;;;;;;5072176;28;20116;-59
2021/06/01 10:24:55;;;;;;;26.05;10.18;;;24.90;48.20;;;;;;5076033;28;20073;-58
2021/06/01 10:27:22;;;;;;;13.43;4.22;;;24.90;48.70;;;;;;5072554;28;20441;-58
2021/06/01 10:29:49;;;;;;;12.35;3.85;;;24.60;49.00;;;;;;5077048;28;20150;-57
2021/06/01 10:32:16;;;;;;;17.88;2.63;;;24.50;49.40;;;;;;5056439;28;20093;-59
2021/06/01 10:34:44;;;;;;;15.90;3.35;;;24.50;49.70;;;;;;5072778;28;20147;-55
2021/06/01 10:43:18;;;;;;;12.18;3.40;;;24.50;49.80;;;;;;5071794;28;20158;-58
2021/06/01 10:49:50;;;;;;;10.35;3.20;;;24.40;49.90;;;;;;5076145;28;20084;-58
2021/06/01 10:52:12;;;;;;;26.10;12.13;;;24.20;49.70;;;;;;5055950;28;20085;-57
2021/06/01 10:54:45;;;;;;;23.50;9.55;;;24.30;49.60;;;;;;5080643;28;20069;-59
2021/06/01 10:57:14;;;;;;;19.70;5.32;;;24.20;49.20;;;;;;5078610;28;20519;-54
2021/06/01 10:59:53;;;;;;;16.88;3.45;;;24.20;49.70;;;;;;5080527;28;20134;-58
2021/06/01 11:02:20;;;;;;;15.45;2.75;;;24.10;49.40;;;;;;5076512;28;20150;-59
2021/06/01 11:05:10;;;;;;;5.63;2.22;;;24.00;49.90;;;;;;5081540;28;20534;-56
2021/06/01 11:07:52;;;;;;;9.07;2.50;;;23.80;51.40;;;;;;5076161;28;20464;-59
2021/06/01 11:10:47;;;;;;;13.88;3.13;;;23.70;52.40;;;;;;5079732;28;20076;-56
2021/06/01 11:13:23;;;;;;;14.23;2.67;;;23.60;53.20;;;;;;5076608;28;20073;-56
2021/06/01 11:15:59;;;;;;;11.43;2.50;;;23.60;53.90;;;;;;5079716;28;20092;-57
2021/06/01 11:18:35;;;;;;;10.27;2.30;;;23.80;85.50;;;;;;5077198;28;20100;-58
2021/06/01 11:21:19;;;;;;;9.63;2.30;;;23.80;53.50;;;;;;5081598;28;20580;-58
2021/06/01 11:24:21;;;;;;;16.15;3.25;;;23.70;90.30;;;;;;5079007;28;20075;-56
2021/06/01 11:33:02;;;;;;;15.30;2.78;;;23.40;56.70;;;;;;5076796;28;20077;-59
2021/06/01 11:35:28;;;;;;;11.73;2.33;;;23.30;57.40;;;;;;5078630;28;20077;-59
2021/06/01 11:38:10;;;;;;;14.18;2.90;;;23.30;58.00;;;;;;5075183;28;20089;-59
2021/06/01 11:43:18;;;;;;;11.43;2.30;;;23.20;59.70;;;;;;5074351;28;20123;-59
2021/06/01 11:46:11;;;;;;;9.15;2.30;;;22.60;66.30;;;;;;5080917;28;20080;-58
2021/06/01 11:51:21;;;;;;;10.95;2.33;;;23.00;62.30;;;;;;5078849;28;20545;-59
2021/06/01 11:53:54;;;;;;;19.48;2.65;;;23.00;62.40;;;;;;5075744;28;20122;-60
2021/06/01 11:57:13;;;;;;;8.55;2.60;;;23.00;62.50;;;;;;5077934;28;20076;-57
2021/06/01 12:18:50;;;;;;;13.05;2.55;;;23.00;70.80;;;;;;5074541;28;20565;-56
2021/06/01 12:21:20;;;;;;;13.10;2.30;;;23.00;71.60;;;;;;5080430;28;20139;-57
2021/06/01 12:24:00;;;;;;;11.07;2.80;;;23.00;72.60;;;;;;5073393;28;20070;-59
2021/06/01 12:32:11;;;;;;;10.23;2.80;;;22.90;78.20;;;;;;5077374;28;20155;-59
2021/06/01 12:46:04;;;;;;;18.38;3.10;;;23.10;81.30;;;;;;5081297;28;20085;-59
2021/06/01 13:09:24;;;;;;;17.92;4.65;;;22.80;88.10;;;;;;5076531;28;20085;-59
2021/06/01 13:21:15;;;;;;;18.13;4.60;;;22.80;90.40;;;;;;5075351;28;20150;-59
2021/06/01 13:39:55;;;;;;;21.23;3.90;;;23.00;86.60;;;;;;5075477;28;20147;-59
2021/06/01 13:50:49;;;;;;;16.67;3.67;;;23.40;82.00;;;;;;5070644;28;20118;-58
2021/06/01 13:56:08;;;;;;;17.85;3.53;;;23.40;81.10;;;;;;5074852;28;20073;-55
2021/06/01 15:31:50;;;;;;;30.80;2.90;;;27.40;57.10;;;;;;4984076;28;20082;-57
2021/06/01 15:48:37;;;;;;;24.10;4.03;;;28.90;53.10;;;;;;5071850;28;20171;-59
2021/06/01 16:21:36;;;;;;;30.38;4.65;;;31.50;43.80;;;;;;5089818;28;20599;-59
2021/06/01 16:43:20;;;;;;;33.20;4.72;;;33.00;56.40;;;;;;5080691;28;20052;-58
2021/06/01 17:05:18;;;;;;;23.45;3.22;;;33.70;36.30;;;;;;5082568;28;20072;-61
2021/06/01 17:08:01;;;;;;;72.80;6.43;;;33.80;35.30;;;;;;5072495;28;20132;-62
2021/06/01 17:13:16;;;;;;;42.45;5.35;;;34.20;35.40;;;;;;5078774;28;20099;-61
2021/06/01 17:15:44;;;;;;;16.60;3.78;;;34.50;34.10;;;;;;5080342;28;20076;-61
2021/06/01 17:18:39;;;;;;;46.53;5.25;;;34.60;32.40;;;;;;5090484;28;20073;-62
2021/06/01 17:37:05;;;;;;;15.88;3.17;;;35.30;27.70;;;;;;5083153;28;20556;-60
2021/06/01 17:39:32;;;;;;;17.30;2.80;;;35.70;37.60;;;;;;5064675;28;20043;-59
2021/06/01 17:42:00;;;;;;;28.33;6.53;;;35.50;28.10;;;;;;5081886;28;20088;-61
2021/06/01 17:44:29;;;;;;;48.95;7.10;;;35.70;37.00;;;;;;5104216;27;20557;-62
2021/06/01 17:47:03;;;;;;;26.33;4.00;;;35.70;33.90;;;;;;5083468;28;20066;-61
2021/06/01 17:49:31;;;;;;;24.00;3.25;;;35.70;33.00;;;;;;5085659;28;20160;-60
2021/06/01 17:52:00;;;;;;;21.38;4.05;;;35.80;31.20;;;;;;5080167;28;20548;-61
2021/06/01 17:54:34;;;;;;;23.23;3.47;;;35.80;34.90;;;;;;5083128;28;20081;-60
2021/06/01 17:57:03;;;;;;;14.10;3.03;;;35.70;30.90;;;;;;5089307;28;20087;-61
2021/06/01 17:59:29;;;;;;;24.45;3.38;;;35.60;30.70;;;;;;5084739;28;20104;-61
2021/06/01 18:01:57;;;;;;;17.92;3.17;;;35.60;28.10;;;;;;5087085;28;20120;-61
2021/06/01 18:04:27;;;;;;;14.23;2.00;;;35.50;24.60;;;;;;5089806;28;20444;-61
2021/06/01 18:07:01;;;;;;;15.73;3.13;;;35.50;21.50;;;;;;5090687;28;20076;-60
2021/06/01 18:12:38;;;;;;;15.98;2.58;;;35.70;24.20;;;;;;5075523;28;20079;-60
2021/06/01 18:40:44;;;;;;;12.45;3.05;;;36.40;23.90;;;;;;5080232;28;20171;-62
2021/06/01 19:51:10;;;;;;;11.70;1.75;;;39.10;14.00;;;;;;5088031;28;20039;-65
2021/06/01 19:53:39;;;;;;;11.52;1.40;;;39.20;15.70;;;;;;5094121;28;20068;-65
2021/06/01 19:56:06;;;;;;;9.93;1.80;;;39.30;13.80;;;;;;5092265;28;20072;-65
2021/06/01 19:58:34;;;;;;;8.38;1.35;;;39.30;13.30;;;;;;5080160;28;20453;-65
2021/06/01 20:01:09;;;;;;;7.43;1.40;;;39.50;12.10;;;;;;5081945;28;20127;-65
2021/06/01 20:03:37;;;;;;;5.38;1.40;;;39.40;12.50;;;;;;5080023;28;20094;-65
2021/06/01 20:06:08;;;;;;;7.63;1.70;;;39.40;13.20;;;;;;5087262;28;20442;-64